Terminal Aerodrome Forecast
Issued by NWS Mt. Holly, NJ

Home | Current Version | Previous Version | Text Only | Print | Product List | Glossary On
Versions: 1 2 3 4 5 6 7 8 9 10 11 12 13 14 15 16 17 18 19 20 21 22
000
FTUS41 KPHI 281700
TAFABE
TAF
KABE 281731Z 2818/2918 27013G23KT P6SM SCT035 BKN045
      TEMPO 2819/2823 -SHRA BKN035
     FM290000 28010KT P6SM SCT040 BKN100
     FM290400 30005KT P6SM SCT200
     FM291500 30005KT P6SM SCT050=

USA.gov is the U.S. government's official web portal to all federal, state and local government web resources and services.